createdAt,value
2018-09-19T00:03:53.819Z,13.50
2018-09-19T00:06:25.444Z,13.50
2018-09-19T00:08:55.618Z,13.00
2018-09-19T00:11:25.186Z,13.50
2018-09-19T00:13:54.453Z,12.00
2018-09-19T00:16:25.431Z,11.50
2018-09-19T00:18:55.791Z,12.00
2018-09-19T00:21:26.715Z,13.25
2018-09-19T00:23:57.625Z,15.00
2018-09-19T00:26:27.606Z,11.25
2018-09-19T00:31:49.363Z,12.50
2018-09-19T00:34:18.625Z,12.25
2018-09-19T00:36:47.996Z,12.00
2018-09-19T00:39:17.223Z,11.50
2018-09-19T00:41:46.576Z,13.75
2018-09-19T00:44:16.241Z,14.50
2018-09-19T00:46:45.951Z,13.00
2018-09-19T00:49:15.371Z,12.25
2018-09-19T00:51:44.835Z,14.00
2018-09-19T00:54:14.182Z,14.00
2018-09-19T00:56:43.614Z,12.25
2018-09-19T00:59:13.348Z,13.00
2018-09-19T01:01:42.840Z,15.75
2018-09-19T01:04:12.144Z,15.00
2018-09-19T01:06:50.851Z,13.50
2018-09-19T01:09:20.189Z,13.50
2018-09-19T01:11:49.474Z,12.50
2018-09-19T01:14:19.152Z,13.50
2018-09-19T01:16:48.785Z,13.50
2018-09-19T01:19:18.183Z,16.00
2018-09-19T01:21:47.530Z,13.00
2018-09-19T01:24:16.896Z,14.75
2018-09-19T01:26:46.810Z,15.00
2018-09-19T01:29:17.539Z,16.00
2018-09-19T01:31:47.166Z,15.75
2018-09-19T01:34:17.477Z,14.50
2018-09-19T01:36:47.043Z,12.75
2018-09-19T01:39:16.720Z,15.25
2018-09-19T01:41:46.025Z,15.50
2018-09-19T01:44:19.242Z,17.00
2018-09-19T01:46:48.739Z,16.00
2018-09-19T01:49:18.340Z,15.50
2018-09-19T01:51:56.502Z,15.00
2018-09-19T01:54:26.411Z,16.00
2018-09-19T01:56:55.850Z,17.00
2018-09-19T01:59:26.463Z,15.00
2018-09-19T02:01:57.756Z,14.00
2018-09-19T02:04:27.368Z,16.75
2018-09-19T02:06:57.759Z,15.25
2018-09-19T02:09:27.324Z,16.75
2018-09-19T02:11:57.224Z,16.75
2018-09-19T02:14:26.689Z,14.75
2018-09-19T02:16:56.136Z,16.50
2018-09-19T02:19:25.856Z,15.75
2018-09-19T02:21:57.507Z,16.25
2018-09-19T02:24:26.926Z,16.00
2018-09-19T02:26:56.941Z,15.50
2018-09-19T02:29:26.844Z,14.75
2018-09-19T02:31:56.452Z,14.25
2018-09-19T02:34:26.101Z,16.50
2018-09-19T02:36:55.392Z,15.00
2018-09-19T02:39:24.646Z,13.75
2018-09-19T02:41:54.411Z,18.00
2018-09-19T02:44:24.483Z,16.00
2018-09-19T02:46:54.075Z,15.25
2018-09-19T02:49:23.712Z,16.25
2018-09-19T02:51:57.461Z,15.00
2018-09-19T02:54:27.806Z,17.25
2018-09-19T02:56:57.449Z,17.50
2018-09-19T02:59:26.999Z,20.75
2018-09-19T03:02:01.661Z,16.50
2018-09-19T03:04:31.222Z,17.00
2018-09-19T03:07:04.167Z,16.00
2018-09-19T03:09:34.201Z,21.00
2018-09-19T03:12:06.874Z,16.75
2018-09-19T03:14:36.034Z,14.25
2018-09-19T03:17:05.660Z,18.00
2018-09-19T03:19:36.195Z,19.50
2018-09-19T03:22:08.311Z,16.75
2018-09-19T03:24:38.950Z,18.00
2018-09-19T03:27:08.567Z,19.50
2018-09-19T03:29:37.818Z,19.75
2018-09-19T03:32:07.123Z,16.25
2018-09-19T03:34:39.116Z,18.00
2018-09-19T03:37:09.467Z,17.50
2018-09-19T03:39:38.807Z,21.25
2018-09-19T03:42:08.415Z,17.50
2018-09-19T03:44:37.740Z,18.25
2018-09-19T03:47:08.277Z,20.25
2018-09-19T03:49:38.838Z,17.75
2018-09-19T03:52:08.701Z,17.00
2018-09-19T03:54:39.282Z,18.50
2018-09-19T03:57:11.464Z,19.75
2018-09-19T03:59:40.876Z,20.00
2018-09-19T04:02:11.516Z,18.50
2018-09-19T04:04:41.750Z,19.00
2018-09-19T04:07:10.987Z,19.25
2018-09-19T04:09:41.172Z,20.50
2018-09-19T04:12:11.752Z,17.50
2018-09-19T04:14:41.126Z,18.25
2018-09-19T04:17:10.699Z,18.50
2018-09-19T04:19:40.503Z,18.25
2018-09-19T04:22:10.892Z,15.75
2018-09-19T04:24:40.271Z,16.00
2018-09-19T04:27:10.825Z,19.00
2018-09-19T04:29:40.416Z,16.75
2018-09-19T04:32:12.490Z,20.75
2018-09-19T04:34:44.309Z,19.75
2018-09-19T04:37:13.500Z,21.00
2018-09-19T04:39:42.845Z,18.00
2018-09-19T04:42:12.446Z,20.00
2018-09-19T04:44:41.692Z,17.75
2018-09-19T04:47:12.422Z,18.00
2018-09-19T04:49:43.086Z,20.00
2018-09-19T04:52:12.532Z,26.00
2018-09-19T04:54:41.846Z,20.50
2018-09-19T04:57:13.144Z,20.50
2018-09-19T04:59:42.395Z,20.25
2018-09-19T05:02:12.091Z,24.00
2018-09-19T05:04:42.457Z,16.50
2018-09-19T05:07:12.467Z,18.75
2018-09-19T05:09:42.307Z,23.50
2018-09-19T05:12:14.276Z,21.50
2018-09-19T05:14:43.784Z,19.50
2018-09-19T05:17:14.326Z,19.75
2018-09-19T05:19:44.341Z,21.00
2018-09-19T05:22:13.681Z,23.25
2018-09-19T05:24:42.873Z,26.25
2018-09-19T05:27:28.665Z,22.50
2018-09-19T05:29:58.161Z,20.50
2018-09-19T05:32:28.355Z,20.25
2018-09-19T05:34:58.420Z,21.50
2018-09-19T05:37:28.806Z,22.00
2018-09-19T05:40:02.133Z,23.75
2018-09-19T05:42:31.814Z,25.25
2018-09-19T05:45:03.522Z,24.75
2018-09-19T05:47:33.664Z,23.50
2018-09-19T05:50:21.701Z,24.00
2018-09-19T05:52:51.582Z,22.75
2018-09-19T05:55:21.073Z,24.00
2018-09-19T05:57:50.761Z,25.25
2018-09-19T06:00:21.160Z,24.75
2018-09-19T06:02:50.591Z,23.75
2018-09-19T06:05:22.977Z,24.50
2018-09-19T06:07:53.270Z,22.00
2018-09-19T06:10:23.293Z,23.00
2018-09-19T06:12:53.346Z,28.25
2018-09-19T06:15:27.353Z,26.00
2018-09-19T06:17:57.788Z,22.75
2018-09-19T06:20:27.526Z,24.75
2018-09-19T06:23:01.595Z,23.25
2018-09-19T06:25:31.140Z,24.25
2018-09-19T06:28:11.718Z,24.00
2018-09-19T06:30:45.083Z,23.50
2018-09-19T06:33:18.767Z,22.00
2018-09-19T06:35:48.534Z,19.75
2018-09-19T06:38:25.362Z,24.00
2018-09-19T06:40:59.823Z,23.25
2018-09-19T06:43:32.240Z,22.75
2018-09-19T06:46:02.545Z,26.25
2018-09-19T06:48:32.390Z,24.00
2018-09-19T06:51:05.625Z,24.25
2018-09-19T06:53:54.434Z,26.00
2018-09-19T06:56:26.633Z,22.00
2018-09-19T06:58:57.577Z,24.50
2018-09-19T07:01:45.779Z,23.00
2018-09-19T07:04:16.369Z,21.25
2018-09-19T07:06:46.138Z,20.00
2018-09-19T07:09:19.083Z,21.25
2018-09-19T07:11:48.389Z,23.50
2018-09-19T07:14:22.421Z,23.75
2018-09-19T07:16:59.551Z,24.00
2018-09-19T07:19:29.189Z,21.00
2018-09-19T07:22:02.690Z,22.25
2018-09-19T07:24:36.297Z,19.25
2018-09-19T07:27:05.987Z,24.00
2018-09-19T07:29:39.596Z,22.25
2018-09-19T07:32:15.037Z,21.25
2018-09-19T07:34:45.984Z,19.50
2018-09-19T07:37:16.501Z,19.00
2018-09-19T07:39:45.710Z,17.00
2018-09-19T07:42:16.540Z,22.25
2018-09-19T07:44:48.138Z,19.25
2018-09-19T07:47:18.836Z,21.75
2018-09-19T07:49:49.850Z,20.00
2018-09-19T07:52:22.732Z,21.75
2018-09-19T07:54:56.555Z,24.75
2018-09-19T07:57:29.008Z,23.50
2018-09-19T08:00:07.391Z,20.25
2018-09-19T08:02:39.216Z,22.75
2018-09-19T08:05:08.724Z,21.00
2018-09-19T08:13:11.444Z,18.75
2018-09-19T08:15:40.960Z,21.75
2018-09-19T08:18:10.449Z,19.25
2018-09-19T08:20:43.563Z,22.00
2018-09-19T08:23:13.240Z,19.25
2018-09-19T08:25:44.277Z,22.25
2018-09-19T08:28:14.914Z,20.00
2018-09-19T08:30:45.345Z,19.50
2018-09-19T08:33:16.679Z,21.50
2018-09-19T08:35:47.312Z,19.25
2018-09-19T08:38:20.046Z,17.00
2018-09-19T08:40:51.328Z,20.50
2018-09-19T08:43:26.497Z,18.75
2018-09-19T08:45:57.088Z,19.50
2018-09-19T08:48:38.773Z,17.25
2018-09-19T08:51:13.504Z,16.50
2018-09-19T08:53:43.602Z,19.00
2018-09-19T08:56:13.410Z,17.50
2018-09-19T08:58:46.607Z,18.00
2018-09-19T09:01:20.688Z,18.00
2018-09-19T09:03:58.477Z,18.25
2018-09-19T09:06:28.296Z,21.25
2018-09-19T09:11:23.294Z,17.25
2018-09-19T09:13:53.371Z,19.00
2018-09-19T09:16:25.402Z,20.00
2018-09-19T09:18:55.090Z,17.75
2018-09-19T09:21:28.112Z,15.00
2018-09-19T09:23:57.613Z,13.25
2018-09-19T09:26:30.220Z,15.25
2018-09-19T09:29:08.465Z,15.25
2018-09-19T09:31:50.588Z,15.00
2018-09-19T09:34:26.173Z,13.00
2018-09-19T09:36:56.545Z,16.50
2018-09-19T09:39:27.866Z,16.75
2018-09-19T09:41:57.244Z,15.50
2018-09-19T09:44:26.810Z,17.00
2018-09-19T09:46:56.436Z,13.50
2018-09-19T09:49:26.839Z,13.25
2018-09-19T09:52:03.096Z,16.25
2018-09-19T09:54:34.365Z,13.25
2018-09-19T09:57:04.846Z,15.25
2018-09-19T09:59:37.681Z,15.75
2018-09-19T10:02:08.396Z,15.00
2018-09-19T10:04:40.357Z,14.50
2018-09-19T10:07:12.623Z,15.25
2018-09-19T10:09:43.328Z,16.50
2018-09-19T10:12:15.238Z,15.00
2018-09-19T10:14:46.746Z,10.00
2018-09-19T10:17:17.357Z,23.00
2018-09-19T10:19:48.631Z,11.50
2018-09-19T10:22:19.510Z,13.50
2018-09-19T10:24:50.264Z,11.00
2018-09-19T10:27:20.962Z,11.50
2018-09-19T10:29:55.440Z,13.75
2018-09-19T10:32:28.225Z,10.25
2018-09-19T10:34:57.789Z,9.00
2018-09-19T10:40:24.753Z,9.00
2018-09-19T10:42:56.803Z,9.00
2018-09-19T10:45:28.780Z,10.25
2018-09-19T10:48:11.533Z,8.00
2018-09-19T10:50:54.671Z,9.50
2018-09-19T10:53:27.669Z,9.00
2018-09-19T10:55:58.703Z,8.75
2018-09-19T10:58:31.920Z,8.00
2018-09-19T11:01:04.685Z,8.25
2018-09-19T11:03:34.872Z,7.00
2018-09-19T11:06:04.333Z,10.25
2018-09-19T11:08:39.173Z,9.50
2018-09-19T11:11:09.733Z,8.25
2018-09-19T11:13:47.716Z,9.25
2018-09-19T11:16:21.604Z,7.00
2018-09-19T11:18:52.807Z,9.75
2018-09-19T11:21:29.837Z,7.00
2018-09-19T11:23:59.308Z,8.00
2018-09-19T11:26:30.604Z,8.50
2018-09-19T11:29:00.172Z,10.00
2018-09-19T11:31:30.449Z,10.00
2018-09-19T11:33:59.949Z,10.00
2018-09-19T11:36:29.701Z,10.50
2018-09-19T11:39:01.624Z,8.25
2018-09-19T11:41:32.832Z,9.25
2018-09-19T11:44:04.545Z,7.00
2018-09-19T11:46:34.266Z,9.00
2018-09-19T11:49:06.741Z,8.00
2018-09-19T11:51:38.220Z,8.00
2018-09-19T11:54:08.425Z,9.25
2018-09-19T11:59:22.161Z,12.00
2018-09-19T12:01:58.606Z,10.50
2018-09-19T12:04:31.772Z,11.00
2018-09-19T12:07:05.677Z,11.00
2018-09-19T12:09:36.877Z,10.25
2018-09-19T12:12:06.500Z,11.25
2018-09-19T12:14:37.154Z,10.00
2018-09-19T12:17:16.427Z,8.25
2018-09-19T12:19:48.020Z,12.75
2018-09-19T12:22:19.564Z,9.75
2018-09-19T12:24:50.385Z,9.00
2018-09-19T12:27:20.948Z,9.25
2018-09-19T12:29:51.667Z,9.50
2018-09-19T12:32:24.645Z,11.25
2018-09-19T12:34:58.967Z,12.00
2018-09-19T12:37:30.103Z,10.25
2018-09-19T12:39:59.758Z,9.00
2018-09-19T12:42:32.296Z,9.75
2018-09-19T12:45:05.292Z,11.00
2018-09-19T12:47:51.490Z,9.50
2018-09-19T12:50:23.456Z,9.75
2018-09-19T12:52:56.384Z,10.00
2018-09-19T12:55:29.805Z,9.50
2018-09-19T12:58:00.992Z,8.50
2018-09-19T13:00:32.531Z,10.00
2018-09-19T13:03:05.023Z,9.00
2018-09-19T13:05:37.306Z,10.25
2018-09-19T13:08:08.702Z,10.00
2018-09-19T13:10:39.833Z,10.00
2018-09-19T13:13:16.988Z,11.00
2018-09-19T13:15:57.969Z,8.25
2018-09-19T13:18:28.947Z,9.00
2018-09-19T13:20:59.165Z,11.00
2018-09-19T13:23:29.722Z,11.00
2018-09-19T13:26:10.550Z,8.25
2018-09-19T13:28:44.616Z,8.50
2018-09-19T13:31:21.834Z,10.00
2018-09-19T13:33:52.663Z,11.00
2018-09-19T13:36:25.097Z,10.75
2018-09-19T13:38:59.545Z,10.50
2018-09-19T13:41:37.819Z,12.50
2018-09-19T13:44:09.281Z,9.50
2018-09-19T13:46:39.247Z,8.25
2018-09-19T13:49:23.175Z,8.75
2018-09-19T13:51:57.817Z,11.50
2018-09-19T13:54:30.757Z,9.00
2018-09-19T13:57:02.645Z,10.25
2018-09-19T13:59:33.908Z,10.00
2018-09-19T14:02:04.866Z,8.50
2018-09-19T14:04:35.437Z,9.25
2018-09-19T14:07:11.011Z,10.50
2018-09-19T14:09:41.365Z,12.00
2018-09-19T14:12:16.853Z,10.00
2018-09-19T14:14:46.517Z,13.50
2018-09-19T14:17:16.489Z,12.00
2018-09-19T14:19:46.656Z,11.50
2018-09-19T14:22:22.731Z,9.75
2018-09-19T14:24:52.640Z,10.50
2018-09-19T14:27:26.511Z,11.75
2018-09-19T14:29:56.364Z,11.75
2018-09-19T14:32:32.466Z,10.50
2018-09-19T14:35:06.655Z,10.00
2018-09-19T14:37:38.995Z,10.50
2018-09-19T14:40:12.590Z,9.00
2018-09-19T14:42:47.193Z,12.00
2018-09-19T14:45:19.200Z,12.25
2018-09-19T14:47:59.385Z,10.25
2018-09-19T14:50:42.659Z,9.25
2018-09-19T14:53:13.595Z,12.00
2018-09-19T14:55:47.256Z,10.25
2018-09-19T14:58:18.622Z,9.75
2018-09-19T15:00:48.732Z,9.00
2018-09-19T15:03:21.876Z,16.25
2018-09-19T15:05:53.309Z,12.25
2018-09-19T15:08:26.375Z,11.25
2018-09-19T15:10:56.720Z,12.00
2018-09-19T15:16:05.898Z,8.00
2018-09-19T15:18:36.086Z,10.50
2018-09-19T15:21:05.493Z,13.00
2018-09-19T15:23:37.262Z,11.75
2018-09-19T15:26:06.870Z,9.50
2018-09-19T15:28:36.268Z,12.50
2018-09-19T15:31:06.801Z,11.00
2018-09-19T15:33:36.802Z,10.00
2018-09-19T15:36:07.356Z,9.75
2018-09-19T15:38:37.940Z,11.00
2018-09-19T15:41:07.242Z,10.75
2018-09-19T15:43:38.587Z,9.25
2018-09-19T15:46:09.309Z,11.25
2018-09-19T15:48:40.418Z,9.50
2018-09-19T15:51:11.571Z,11.25
2018-09-19T15:53:44.565Z,10.50
2018-09-19T15:56:14.990Z,11.00
2018-09-19T15:58:46.505Z,11.25
2018-09-19T16:01:16.915Z,10.00
2018-09-19T16:03:47.041Z,11.00
2018-09-19T16:06:20.447Z,12.00
2018-09-19T16:08:57.389Z,11.00
2018-09-19T16:11:30.864Z,14.00
2018-09-19T16:14:01.784Z,10.50
2018-09-19T16:16:31.498Z,10.00
2018-09-19T16:19:02.279Z,10.00
2018-09-19T16:21:33.907Z,10.00
2018-09-19T16:24:04.856Z,12.00
2018-09-19T16:26:37.197Z,10.25
2018-09-19T16:29:15.705Z,9.50
2018-09-19T16:31:48.413Z,9.25
2018-09-19T16:34:20.103Z,11.25
2018-09-19T16:36:50.564Z,9.75
2018-09-19T16:39:24.800Z,10.00
2018-09-19T16:41:55.797Z,8.00
2018-09-19T16:44:26.105Z,9.75
2018-09-19T16:49:18.775Z,11.25
2018-09-19T16:52:00.942Z,11.25
2018-09-19T16:54:33.487Z,8.00
2018-09-19T16:57:04.972Z,10.00
2018-09-19T16:59:38.142Z,10.00
2018-09-19T17:02:11.476Z,9.00
2018-09-19T17:04:44.177Z,12.00
2018-09-19T17:07:15.642Z,11.75
2018-09-19T17:09:54.604Z,9.50
2018-09-19T17:12:27.904Z,9.00
2018-09-19T17:15:07.817Z,8.50
2018-09-19T17:17:44.396Z,12.75
2018-09-19T17:20:16.151Z,11.00
2018-09-19T17:22:50.523Z,10.00
2018-09-19T17:25:22.207Z,13.50
2018-09-19T17:27:52.210Z,8.25
2018-09-19T17:30:21.844Z,11.25
2018-09-19T17:32:58.784Z,10.00
2018-09-19T17:35:29.519Z,9.50
2018-09-19T17:37:59.725Z,9.25
2018-09-19T17:40:31.551Z,12.75
2018-09-19T17:43:01.615Z,11.00
2018-09-19T17:45:38.556Z,11.00
2018-09-19T17:48:08.608Z,10.00
2018-09-19T17:50:39.107Z,11.50
2018-09-19T17:53:12.871Z,11.50
2018-09-19T17:55:59.393Z,13.25
2018-09-19T17:58:30.229Z,11.00
2018-09-19T18:01:21.498Z,11.25
2018-09-19T18:03:53.071Z,10.50
2018-09-19T18:06:24.546Z,12.00
2018-09-19T18:08:56.086Z,11.50
2018-09-19T18:11:34.923Z,10.25
2018-09-19T18:14:13.842Z,11.00
2018-09-19T18:16:47.237Z,11.00
2018-09-19T18:19:19.315Z,12.50
2018-09-19T18:21:48.921Z,10.50
2018-09-19T18:24:26.201Z,8.00
2018-09-19T18:26:58.411Z,10.75
2018-09-19T18:29:30.644Z,8.25
2018-09-19T18:32:03.285Z,11.00
2018-09-19T18:34:33.796Z,8.75
2018-09-19T18:37:04.036Z,10.75
2018-09-19T18:39:36.022Z,11.75
2018-09-19T18:42:09.504Z,9.00
2018-09-19T18:44:43.472Z,11.00
2018-09-19T18:47:14.482Z,10.00
2018-09-19T18:49:47.487Z,12.00
2018-09-19T18:52:19.304Z,9.00
2018-09-19T18:54:51.145Z,12.75
2018-09-19T18:57:31.024Z,11.75
2018-09-19T19:00:07.631Z,12.50
2018-09-19T19:02:39.081Z,9.75
2018-09-19T19:05:12.508Z,14.50
2018-09-19T19:10:25.888Z,13.25
2018-09-19T19:12:58.688Z,9.50
2018-09-19T19:15:34.425Z,10.50
2018-09-19T19:18:09.754Z,11.25
2018-09-19T19:20:42.230Z,11.50
2018-09-19T19:23:18.348Z,12.00
2018-09-19T19:25:49.732Z,10.50
2018-09-19T19:28:20.404Z,12.00
2018-09-19T19:30:50.347Z,11.75
2018-09-19T19:33:20.561Z,8.00
2018-09-19T19:35:53.147Z,9.50
2018-09-19T19:38:23.631Z,10.00
2018-09-19T19:40:54.284Z,12.00
2018-09-19T19:43:40.156Z,9.50
2018-09-19T19:46:12.452Z,11.00
2018-09-19T19:48:42.231Z,9.25
2018-09-19T19:51:14.563Z,10.75
2018-09-19T19:53:46.376Z,12.00
2018-09-19T19:56:17.448Z,12.00
2018-09-19T19:58:51.291Z,12.25
2018-09-19T20:01:24.145Z,9.75
2018-09-19T20:03:54.976Z,16.50
2018-09-19T20:06:25.268Z,15.00
2018-09-19T20:08:55.588Z,12.25
2018-09-19T20:11:26.244Z,22.50
2018-09-19T20:13:59.467Z,16.75
2018-09-19T20:16:32.455Z,11.75
2018-09-19T20:19:02.176Z,43.00
2018-09-19T20:21:32.694Z,20.00
2018-09-19T20:24:05.586Z,15.00
2018-09-19T20:26:36.175Z,13.00
2018-09-19T20:29:07.503Z,19.50
2018-09-19T20:31:37.187Z,16.25
2018-09-19T20:34:08.141Z,13.50
2018-09-19T20:36:39.896Z,13.25
2018-09-19T20:39:12.851Z,12.00
2018-09-19T20:41:45.742Z,12.75
2018-09-19T20:44:15.134Z,10.75
2018-09-19T20:46:45.742Z,12.00
2018-09-19T20:49:16.192Z,12.25
2018-09-19T20:51:46.844Z,12.75
2018-09-19T20:54:20.622Z,15.50
2018-09-19T20:56:51.564Z,20.75
2018-09-19T20:59:25.951Z,16.25
2018-09-19T21:01:56.116Z,13.50
2018-09-19T21:04:25.840Z,16.50
2018-09-19T21:06:57.932Z,14.00
2018-09-19T21:09:30.671Z,13.00
2018-09-19T21:12:01.932Z,11.50
2018-09-19T21:14:33.107Z,11.25
2018-09-19T21:17:03.366Z,10.25
2018-09-19T21:19:33.562Z,13.00
2018-09-19T21:22:03.114Z,10.25
2018-09-19T21:24:33.588Z,11.00
2018-09-19T21:27:03.742Z,13.75
2018-09-19T21:29:37.203Z,13.00
2018-09-19T21:32:07.357Z,18.75
2018-09-19T21:34:38.770Z,14.50
2018-09-19T21:37:11.962Z,10.25
2018-09-19T21:39:44.223Z,10.00
2018-09-19T21:42:17.611Z,12.00
2018-09-19T21:44:49.261Z,9.00
2018-09-19T21:47:20.067Z,12.50
2018-09-19T21:49:52.988Z,11.00
2018-09-19T21:52:22.427Z,10.00
2018-09-19T21:54:52.836Z,12.25
2018-09-19T21:57:27.246Z,12.50
2018-09-19T22:00:06.939Z,11.25
2018-09-19T22:02:43.240Z,19.00
2018-09-19T22:05:13.700Z,12.25
2018-09-19T22:07:44.388Z,11.75
2018-09-19T22:10:16.372Z,11.00
2018-09-19T22:12:46.039Z,10.75
2018-09-19T22:15:28.868Z,10.00
2018-09-19T22:17:58.664Z,10.00
2018-09-19T22:20:31.182Z,8.00
2018-09-19T22:23:03.006Z,12.00
2018-09-19T22:25:37.327Z,17.00
2018-09-19T22:28:06.746Z,10.75
2018-09-19T22:30:37.704Z,10.50
2018-09-19T22:33:10.894Z,10.00
2018-09-19T22:35:41.251Z,9.25
2018-09-19T22:38:11.500Z,13.00
2018-09-19T22:40:41.282Z,11.25
2018-09-19T22:43:11.709Z,14.75
2018-09-19T22:45:41.254Z,12.00
2018-09-19T22:48:11.118Z,15.50
2018-09-19T22:50:41.700Z,12.50
2018-09-19T22:53:11.662Z,12.00
2018-09-19T22:55:52.768Z,11.50
2018-09-19T22:58:25.724Z,11.00
2018-09-19T23:00:55.836Z,12.50
2018-09-19T23:03:25.818Z,14.75
2018-09-19T23:05:56.829Z,12.50
2018-09-19T23:08:30.144Z,14.00
2018-09-19T23:10:59.865Z,17.00
2018-09-19T23:13:29.682Z,15.50
2018-09-19T23:15:59.505Z,15.50
2018-09-19T23:18:29.055Z,15.75
2018-09-19T23:20:58.734Z,13.75
2018-09-19T23:23:28.212Z,17.75
2018-09-19T23:25:57.587Z,13.25
2018-09-19T23:28:28.260Z,13.00
2018-09-19T23:31:00.108Z,14.75
2018-09-19T23:33:31.360Z,12.50
2018-09-19T23:36:03.758Z,15.00
2018-09-19T23:38:36.231Z,16.25
2018-09-19T23:41:06.516Z,13.50
2018-09-19T23:43:35.876Z,13.25
2018-09-19T23:46:06.216Z,15.00
2018-09-19T23:48:35.676Z,13.00
2018-09-19T23:51:06.279Z,13.50
2018-09-19T23:53:35.981Z,18.00
2018-09-19T23:56:06.281Z,14.25
2018-09-19T23:58:36.197Z,12.75
